sensor_id;sensor_type;location;lat;lon;timestamp;P1;durP1;ratioP1;P2;durP2;ratioP2
49556;SDS011;35462;45.048;7.666;2024-03-02T00:00:28;9.40;;;6.90;;
49556;SDS011;35462;45.048;7.666;2024-03-02T00:15:35;9.40;;;6.25;;
49556;SDS011;35462;45.048;7.666;2024-03-02T00:30:50;6.57;;;5.22;;
49556;SDS011;35462;45.048;7.666;2024-03-02T00:45:56;5.82;;;4.65;;
49556;SDS011;35462;45.048;7.666;2024-03-02T01:00:59;5.68;;;4.78;;
49556;SDS011;35462;45.048;7.666;2024-03-02T01:16:02;6.10;;;5.50;;
49556;SDS011;35462;45.048;7.666;2024-03-02T01:31:05;7.43;;;5.65;;
49556;SDS011;35462;45.048;7.666;2024-03-02T01:46:08;8.02;;;6.15;;
49556;SDS011;35462;45.048;7.666;2024-03-02T02:01:11;6.97;;;5.43;;
49556;SDS011;35462;45.048;7.666;2024-03-02T02:16:13;10.63;;;8.25;;
49556;SDS011;35462;45.048;7.666;2024-03-02T02:31:16;9.55;;;7.55;;
49556;SDS011;35462;45.048;7.666;2024-03-02T02:46:18;7.05;;;5.93;;
49556;SDS011;35462;45.048;7.666;2024-03-02T03:01:21;7.63;;;6.22;;
49556;SDS011;35462;45.048;7.666;2024-03-02T03:16:23;8.50;;;7.55;;
49556;SDS011;35462;45.048;7.666;2024-03-02T03:31:26;11.88;;;9.02;;
49556;SDS011;35462;45.048;7.666;2024-03-02T03:46:28;12.02;;;8.77;;
49556;SDS011;35462;45.048;7.666;2024-03-02T04:01:31;11.23;;;9.63;;
49556;SDS011;35462;45.048;7.666;2024-03-02T04:16:33;12.93;;;10.45;;
49556;SDS011;35462;45.048;7.666;2024-03-02T04:31:36;14.85;;;12.48;;
49556;SDS011;35462;45.048;7.666;2024-03-02T04:46:38;15.07;;;12.20;;
49556;SDS011;35462;45.048;7.666;2024-03-02T05:01:41;20.17;;;12.63;;
49556;SDS011;35462;45.048;7.666;2024-03-02T05:16:44;18.45;;;14.20;;
49556;SDS011;35462;45.048;7.666;2024-03-02T05:31:46;16.98;;;13.50;;
49556;SDS011;35462;45.048;7.666;2024-03-02T05:46:49;17.85;;;14.00;;
49556;SDS011;35462;45.048;7.666;2024-03-02T06:01:51;11.55;;;8.85;;
49556;SDS011;35462;45.048;7.666;2024-03-02T06:16:54;13.95;;;7.65;;
49556;SDS011;35462;45.048;7.666;2024-03-02T06:31:56;9.93;;;7.65;;
49556;SDS011;35462;45.048;7.666;2024-03-02T06:46:59;12.98;;;9.95;;
49556;SDS011;35462;45.048;7.666;2024-03-02T07:02:01;17.90;;;14.45;;
49556;SDS011;35462;45.048;7.666;2024-03-02T07:17:04;18.58;;;14.60;;
49556;SDS011;35462;45.048;7.666;2024-03-02T07:32:08;21.08;;;16.60;;
49556;SDS011;35462;45.048;7.666;2024-03-02T07:47:11;17.48;;;14.82;;
49556;SDS011;35462;45.048;7.666;2024-03-02T08:02:13;19.73;;;12.48;;
49556;SDS011;35462;45.048;7.666;2024-03-02T08:17:16;13.88;;;11.18;;
49556;SDS011;35462;45.048;7.666;2024-03-02T08:32:19;12.38;;;8.88;;
49556;SDS011;35462;45.048;7.666;2024-03-02T08:47:21;6.13;;;4.55;;
49556;SDS011;35462;45.048;7.666;2024-03-02T09:02:24;5.13;;;4.03;;
49556;SDS011;35462;45.048;7.666;2024-03-02T09:17:26;6.63;;;4.32;;
49556;SDS011;35462;45.048;7.666;2024-03-02T09:32:29;7.20;;;5.85;;
49556;SDS011;35462;45.048;7.666;2024-03-02T09:47:32;8.38;;;6.32;;
49556;SDS011;35462;45.048;7.666;2024-03-02T10:02:35;6.60;;;4.82;;
49556;SDS011;35462;45.048;7.666;2024-03-02T10:17:38;7.82;;;6.07;;
49556;SDS011;35462;45.048;7.666;2024-03-02T10:32:40;6.75;;;5.25;;
49556;SDS011;35462;45.048;7.666;2024-03-02T10:47:43;3.53;;;2.72;;
49556;SDS011;35462;45.048;7.666;2024-03-02T11:02:49;2.55;;;1.35;;
49556;SDS011;35462;45.048;7.666;2024-03-02T11:17:53;3.75;;;1.33;;
49556;SDS011;35462;45.048;7.666;2024-03-02T11:32:56;1.58;;;1.00;;
49556;SDS011;35462;45.048;7.666;2024-03-02T11:47:59;1.67;;;0.80;;
49556;SDS011;35462;45.048;7.666;2024-03-02T12:03:03;1.63;;;0.70;;
49556;SDS011;35462;45.048;7.666;2024-03-02T12:18:06;2.72;;;1.10;;
49556;SDS011;35462;45.048;7.666;2024-03-02T12:33:09;1.95;;;1.42;;
49556;SDS011;35462;45.048;7.666;2024-03-02T12:48:13;2.45;;;1.70;;
49556;SDS011;35462;45.048;7.666;2024-03-02T13:03:18;1.92;;;1.52;;
49556;SDS011;35462;45.048;7.666;2024-03-02T13:18:24;2.53;;;1.60;;
49556;SDS011;35462;45.048;7.666;2024-03-02T13:33:27;3.85;;;2.17;;
49556;SDS011;35462;45.048;7.666;2024-03-02T13:48:32;2.55;;;1.77;;
49556;SDS011;35462;45.048;7.666;2024-03-02T14:03:34;2.55;;;1.90;;
49556;SDS011;35462;45.048;7.666;2024-03-02T14:18:37;2.80;;;1.70;;
49556;SDS011;35462;45.048;7.666;2024-03-02T14:33:40;2.38;;;1.90;;
49556;SDS011;35462;45.048;7.666;2024-03-02T14:48:43;2.33;;;1.83;;
49556;SDS011;35462;45.048;7.666;2024-03-02T15:03:46;3.80;;;2.65;;
49556;SDS011;35462;45.048;7.666;2024-03-02T15:18:48;3.33;;;2.17;;
49556;SDS011;35462;45.048;7.666;2024-03-02T15:33:51;5.03;;;2.80;;
49556;SDS011;35462;45.048;7.666;2024-03-02T15:48:55;5.10;;;3.53;;
49556;SDS011;35462;45.048;7.666;2024-03-02T16:03:59;5.40;;;3.38;;
49556;SDS011;35462;45.048;7.666;2024-03-02T16:19:04;6.65;;;5.28;;
49556;SDS011;35462;45.048;7.666;2024-03-02T16:34:07;7.47;;;5.32;;
49556;SDS011;35462;45.048;7.666;2024-03-02T16:49:09;9.75;;;6.10;;
49556;SDS011;35462;45.048;7.666;2024-03-02T17:04:12;10.18;;;7.72;;
49556;SDS011;35462;45.048;7.666;2024-03-02T17:19:15;14.90;;;9.90;;
49556;SDS011;35462;45.048;7.666;2024-03-02T17:34:17;14.68;;;9.13;;
49556;SDS011;35462;45.048;7.666;2024-03-02T17:49:20;13.73;;;8.25;;
49556;SDS011;35462;45.048;7.666;2024-03-02T18:04:23;10.43;;;7.25;;
49556;SDS011;35462;45.048;7.666;2024-03-02T18:19:25;13.23;;;8.52;;
49556;SDS011;35462;45.048;7.666;2024-03-02T18:34:31;10.90;;;7.32;;
49556;SDS011;35462;45.048;7.666;2024-03-02T18:49:33;8.73;;;6.10;;
49556;SDS011;35462;45.048;7.666;2024-03-02T19:04:36;5.82;;;3.88;;
49556;SDS011;35462;45.048;7.666;2024-03-02T19:19:38;8.13;;;5.10;;
49556;SDS011;35462;45.048;7.666;2024-03-02T19:34:41;5.10;;;3.83;;
49556;SDS011;35462;45.048;7.666;2024-03-02T19:49:44;4.85;;;4.15;;
49556;SDS011;35462;45.048;7.666;2024-03-02T20:04:46;2.80;;;1.88;;
49556;SDS011;35462;45.048;7.666;2024-03-02T20:19:49;3.55;;;2.05;;
49556;SDS011;35462;45.048;7.666;2024-03-02T20:34:52;3.58;;;2.22;;
49556;SDS011;35462;45.048;7.666;2024-03-02T20:49:54;5.90;;;2.85;;
49556;SDS011;35462;45.048;7.666;2024-03-02T21:04:57;3.50;;;1.98;;
49556;SDS011;35462;45.048;7.666;2024-03-02T21:19:59;3.42;;;2.42;;
49556;SDS011;35462;45.048;7.666;2024-03-02T21:35:02;4.45;;;2.83;;
49556;SDS011;35462;45.048;7.666;2024-03-02T21:50:07;6.93;;;3.28;;
49556;SDS011;35462;45.048;7.666;2024-03-02T22:05:10;4.63;;;3.30;;
49556;SDS011;35462;45.048;7.666;2024-03-02T22:20:13;6.38;;;4.75;;
49556;SDS011;35462;45.048;7.666;2024-03-02T22:35:15;14.98;;;7.85;;
49556;SDS011;35462;45.048;7.666;2024-03-02T22:50:18;12.30;;;9.15;;
49556;SDS011;35462;45.048;7.666;2024-03-02T23:05:21;15.63;;;10.35;;
49556;SDS011;35462;45.048;7.666;2024-03-02T23:20:24;15.00;;;9.82;;
49556;SDS011;35462;45.048;7.666;2024-03-02T23:35:27;11.65;;;7.60;;
49556;SDS011;35462;45.048;7.666;2024-03-02T23:50:30;16.83;;;9.98;;
